Time;durP1;ratioP1;P1;durP2;ratioP2;P2;SDS_P1;SDS_P2;PMS_P1;PMS_P2;Temp;Humidity;BMP_temperature;BMP_pressure;BME280_temperature;BME280_humidity;BME280_pressure;Samples;Min_cycle;Max_cycle;Signal;HPM_P1;HPM_P2
2021/04/08 00:00:16;;;;;;;0.90;0.80;;;;;15.50;101055.00;;;;2071620;28;20215;-44
2021/04/08 00:01:16;;;;;;;1.45;0.93;;;;;15.40;101044.00;;;;2071774;28;20227;-45
2021/04/08 00:02:17;;;;;;;1.80;1.10;;;;;15.50;101041.00;;;;2071465;28;20222;-44
2021/04/08 00:03:18;;;;;;;1.30;1.20;;;;;15.50;101047.00;;;;2070392;28;20219;-44
2021/04/08 00:04:18;;;;;;;1.43;1.10;;;;;15.40;101047.00;;;;2071581;28;21410;-44
2021/04/08 00:05:18;;;;;;;1.67;1.20;;;;;15.50;101043.00;;;;2071135;28;20285;-45
2021/04/08 00:06:19;;;;;;;2.50;1.10;;;;;15.40;101046.00;;;;2071468;28;20315;-45
2021/04/08 00:07:19;;;;;;;1.27;1.00;;;;;15.50;101043.00;;;;2072072;28;20225;-44
2021/04/08 00:08:19;;;;;;;1.70;0.90;;;;;15.50;101050.00;;;;2072169;28;20226;-45
2021/04/08 00:09:20;;;;;;;1.07;0.90;;;;;15.40;101044.00;;;;2073241;28;20215;-45
2021/04/08 00:10:20;;;;;;;1.93;1.20;;;;;15.40;101046.00;;;;2072487;28;20990;-46
2021/04/08 00:11:20;;;;;;;1.00;0.83;;;;;15.40;101049.00;;;;2072439;28;20217;-45
2021/04/08 00:12:21;;;;;;;1.73;0.87;;;;;15.40;101050.00;;;;2071496;28;20783;-46
2021/04/08 00:13:21;;;;;;;1.10;1.00;;;;;15.50;101045.00;;;;2070077;28;20723;-43
2021/04/08 00:14:23;;;;;;;1.60;1.00;;;;;15.50;101048.00;;;;2071321;28;20580;-45
2021/04/08 00:15:23;;;;;;;1.33;0.90;;;;;15.40;101047.00;;;;2071397;28;20884;-43
2021/04/08 00:16:24;;;;;;;2.20;0.90;;;;;15.50;101055.00;;;;2070874;28;20224;-45
2021/04/08 00:17:24;;;;;;;1.88;1.08;;;;;15.40;101052.00;;;;2071131;28;20223;-44
2021/04/08 00:18:25;;;;;;;1.37;1.00;;;;;15.40;101055.00;;;;2070636;28;20221;-45
2021/04/08 00:19:25;;;;;;;1.80;1.10;;;;;15.40;101052.00;;;;2070868;28;20265;-45
2021/04/08 00:20:25;;;;;;;1.50;0.90;;;;;15.40;101058.00;;;;2070537;28;20234;-45
2021/04/08 00:21:26;;;;;;;1.53;1.07;;;;;15.50;101064.00;;;;2071458;28;20305;-46
2021/04/08 00:22:26;;;;;;;0.80;0.63;;;;;15.40;101052.00;;;;2071425;28;20219;-43
2021/04/08 00:23:26;;;;;;;2.20;1.00;;;;;15.50;101059.00;;;;2069907;28;20846;-43
2021/04/08 00:24:27;;;;;;;1.07;0.80;;;;;15.50;101058.00;;;;2071080;28;20993;-44
2021/04/08 00:25:27;;;;;;;1.10;0.93;;;;;15.50;101059.00;;;;2070949;28;20214;-44
2021/04/08 00:26:27;;;;;;;1.90;1.10;;;;;15.50;101054.00;;;;2071087;28;20241;-45
2021/04/08 00:27:28;;;;;;;1.87;0.90;;;;;15.50;101049.00;;;;2071601;28;20223;-45
2021/04/08 00:28:29;;;;;;;2.10;1.10;;;;;15.50;101062.00;;;;2070192;28;20750;-45
2021/04/08 00:29:29;;;;;;;1.17;0.80;;;;;15.40;101061.00;;;;2070402;28;20276;-46
2021/04/08 00:30:29;;;;;;;1.97;1.00;;;;;15.40;101057.00;;;;2070851;28;20293;-44
2021/04/08 00:31:30;;;;;;;2.10;1.10;;;;;15.40;101061.00;;;;2071184;28;20218;-45
2021/04/08 00:32:30;;;;;;;1.87;1.03;;;;;15.40;101061.00;;;;2070879;28;20243;-45
2021/04/08 00:33:31;;;;;;;1.10;1.00;;;;;15.40;101066.00;;;;2069827;28;20237;-45
2021/04/08 00:34:31;;;;;;;1.47;1.00;;;;;15.40;101067.00;;;;2070884;28;20852;-45
2021/04/08 00:35:31;;;;;;;1.60;0.90;;;;;15.40;101072.00;;;;2070841;28;20649;-46
2021/04/08 00:36:32;;;;;;;2.30;1.10;;;;;15.20;101069.00;;;;2070924;28;20233;-46
2021/04/08 00:37:32;;;;;;;1.53;0.87;;;;;15.50;101062.00;;;;2071149;28;20306;-45
2021/04/08 00:38:32;;;;;;;1.13;0.90;;;;;15.40;101070.00;;;;2070470;28;20234;-44
2021/04/08 00:39:33;;;;;;;1.77;1.30;;;;;15.40;101071.00;;;;2073293;28;20222;-46
2021/04/08 00:40:33;;;;;;;1.80;1.10;;;;;15.40;101065.00;;;;2071865;28;20222;-45
2021/04/08 00:41:33;;;;;;;2.10;1.00;;;;;15.40;101074.00;;;;2070899;28;20249;-45
2021/04/08 00:42:34;;;;;;;1.10;0.90;;;;;15.40;101083.00;;;;2070980;28;20226;-46
2021/04/08 00:43:34;;;;;;;1.30;0.97;;;;;15.40;101061.00;;;;2070065;28;20937;-44
2021/04/08 00:44:34;;;;;;;1.17;0.80;;;;;15.40;101069.00;;;;2071077;28;20228;-45
2021/04/08 00:45:35;;;;;;;1.43;1.30;;;;;15.40;101066.00;;;;2070966;28;20220;-45
2021/04/08 00:46:35;;;;;;;1.80;1.10;;;;;15.40;101077.00;;;;2073595;28;20247;-43
2021/04/08 00:47:36;;;;;;;1.73;1.20;;;;;15.40;101066.00;;;;2079150;28;20223;-41
2021/04/08 00:48:38;;;;;;;1.30;0.80;;;;;15.50;101072.00;;;;2078927;28;20288;-47
2021/04/08 00:49:38;;;;;;;1.23;0.80;;;;;15.50;101074.00;;;;2079070;28;20226;-46
2021/04/08 00:50:38;;;;;;;1.07;0.70;;;;;15.50;101072.00;;;;2079208;28;20313;-46
2021/04/08 00:51:39;;;;;;;1.37;1.00;;;;;15.40;101080.00;;;;2079089;28;20211;-44
2021/04/08 00:52:41;;;;;;;1.23;0.83;;;;;15.40;101074.00;;;;2078336;28;20671;-43
2021/04/08 00:53:41;;;;;;;1.73;0.95;;;;;15.40;101078.00;;;;2068218;28;20221;-47
2021/04/08 00:54:42;;;;;;;1.80;0.80;;;;;15.40;101076.00;;;;2070038;28;20289;-43
2021/04/08 00:55:43;;;;;;;1.60;1.03;;;;;15.40;101078.00;;;;2054056;28;20952;-43
2021/04/08 00:56:43;;;;;;;1.80;1.30;;;;;15.40;101081.00;;;;2054004;28;20238;-43
2021/04/08 00:57:45;;;;;;;1.63;1.00;;;;;15.40;101080.00;;;;2061990;28;20217;-43
2021/04/08 00:58:45;;;;;;;1.40;0.95;;;;;15.40;101059.00;;;;2061683;28;20637;-46
2021/04/08 00:59:46;;;;;;;1.43;1.07;;;;;15.40;101075.00;;;;2062358;28;20290;-43
2021/04/08 01:00:46;;;;;;;1.17;0.90;;;;;15.40;101073.00;;;;2070181;28;20210;-43
2021/04/08 01:01:47;;;;;;;1.27;0.70;;;;;15.40;101084.00;;;;2070698;28;20838;-44
2021/04/08 01:02:47;;;;;;;1.90;1.10;;;;;15.40;101087.00;;;;2070853;28;20538;-47
2021/04/08 01:03:48;;;;;;;1.80;0.97;;;;;15.40;101084.00;;;;2068922;28;20209;-47
2021/04/08 01:04:48;;;;;;;1.40;1.07;;;;;15.40;101088.00;;;;2069476;28;20227;-43
2021/04/08 01:05:48;;;;;;;0.87;0.70;;;;;15.40;101088.00;;;;2077398;28;20214;-47
2021/04/08 01:06:49;;;;;;;1.30;0.90;;;;;15.40;101088.00;;;;2078083;28;20609;-46
2021/04/08 01:07:50;;;;;;;1.43;1.03;;;;;15.40;101099.00;;;;2065900;28;20200;-47
2021/04/08 01:08:50;;;;;;;1.92;1.30;;;;;15.40;101100.00;;;;2062004;28;20211;-43
2021/04/08 01:09:51;;;;;;;1.53;0.90;;;;;15.40;101087.00;;;;2071068;28;20209;-47
2021/04/08 01:10:51;;;;;;;1.57;1.10;;;;;15.40;101094.00;;;;2074260;28;20204;-45
2021/04/08 01:11:51;;;;;;;1.17;1.00;;;;;15.40;101096.00;;;;2073945;28;20274;-42
2021/04/08 01:12:54;;;;;;;1.33;0.87;;;;;15.40;101116.00;;;;2070709;28;20206;-42
2021/04/08 01:13:54;;;;;;;1.50;0.93;;;;;15.40;101096.00;;;;2069276;28;20203;-43
2021/04/08 01:14:55;;;;;;;1.30;0.90;;;;;15.40;101103.00;;;;2061366;28;20223;-44
2021/04/08 01:15:57;;;;;;;1.37;0.80;;;;;15.40;101094.00;;;;2069442;28;20246;-44
2021/04/08 01:17:10;;;;;;;1.60;1.00;;;;;15.40;101094.00;;;;2061171;28;20221;-45
2021/04/08 01:18:47;;;;;;;1.00;0.85;;;;;15.40;101019.00;;;;2066459;28;20215;-44
2021/04/08 01:20:06;;;;;;;1.95;1.20;;;;;15.40;101102.00;;;;2077578;28;20730;-44
2021/04/08 01:21:15;;;;;;;1.50;1.10;;;;;15.40;101099.00;;;;2078495;28;20691;-42
2021/04/08 01:22:57;;;;;;;1.50;1.27;;;;;15.40;101101.00;;;;2078256;28;20656;-47
2021/04/08 01:24:06;;;;;;;1.17;0.82;;;;;15.50;101104.00;;;;2067827;28;20753;-46
2021/04/08 01:25:35;;;;;;;1.55;1.23;;;;;15.40;101103.00;;;;2078042;28;20229;-46
2021/04/08 01:27:14;;;;;;;1.10;1.00;;;;;15.40;101107.00;;;;2068511;28;20224;-42
2021/04/08 01:28:26;;;;;;;1.95;1.10;;;;;15.40;101087.00;;;;2077826;28;20226;-43
2021/04/08 01:29:29;;;;;;;1.98;1.17;;;;;15.40;101101.00;;;;2077496;28;20210;-42
2021/04/08 01:30:39;;;;;;;1.40;1.00;;;;;15.40;101109.00;;;;2077504;28;21037;-44
2021/04/08 01:31:40;;;;;;;1.20;0.88;;;;;15.40;101109.00;;;;2077425;28;20218;-44
2021/04/08 01:32:46;;;;;;;1.67;1.00;;;;;15.40;101103.00;;;;2069814;28;20207;-43
2021/04/08 01:33:50;;;;;;;1.90;0.98;;;;;15.40;101088.00;;;;2076867;28;20240;-47
2021/04/08 01:34:50;;;;;;;1.05;0.93;;;;;15.40;101109.00;;;;2070199;28;20292;-42
2021/04/08 01:35:51;;;;;;;1.00;0.90;;;;;15.40;101101.00;;;;2070089;28;20219;-43
2021/04/08 01:36:53;;;;;;;1.53;1.20;;;;;15.40;101113.00;;;;2068648;28;20219;-46
2021/04/08 01:38:09;;;;;;;2.50;1.40;;;;;15.40;101105.00;;;;2061584;28;20254;-44
2021/04/08 01:39:15;;;;;;;1.85;0.90;;;;;15.40;101106.00;;;;2068671;28;20213;-47
2021/04/08 01:40:16;;;;;;;1.27;0.90;;;;;15.40;101107.00;;;;2064791;28;20891;-43
2021/04/08 01:41:19;;;;;;;1.17;0.90;;;;;15.40;101103.00;;;;2064252;28;20223;-44
2021/04/08 01:42:19;;;;;;;1.20;0.90;;;;;15.40;101106.00;;;;2062745;28;20295;-44
2021/04/08 01:43:21;;;;;;;1.10;0.80;;;;;15.40;101106.00;;;;2068368;28;20210;-47
2021/04/08 01:44:23;;;;;;;2.85;1.17;;;;;15.40;101110.00;;;;2077636;28;20218;-46
2021/04/08 01:45:23;;;;;;;1.15;1.05;;;;;15.40;101096.00;;;;2069089;28;20294;-43
2021/04/08 01:46:24;;;;;;;1.30;1.00;;;;;15.40;101113.00;;;;2069854;28;20214;-44
2021/04/08 01:47:26;;;;;;;1.08;0.75;;;;;15.40;101108.00;;;;2078046;28;20210;-44
2021/04/08 01:48:27;;;;;;;1.55;0.93;;;;;15.40;101112.00;;;;2071017;28;20215;-44
2021/04/08 01:49:27;;;;;;;1.10;0.90;;;;;15.40;101114.00;;;;2070038;28;20230;-43
2021/04/08 01:50:28;;;;;;;1.30;1.03;;;;;15.40;101114.00;;;;2061803;28;20219;-47
2021/04/08 01:51:28;;;;;;;1.67;1.10;;;;;15.40;101107.00;;;;2061868;28;20483;-44
2021/04/08 01:52:29;;;;;;;1.93;1.00;;;;;15.40;101115.00;;;;2061716;28;20211;-43
2021/04/08 01:53:29;;;;;;;1.20;0.87;;;;;15.40;101107.00;;;;2060249;28;20729;-44
2021/04/08 01:54:31;;;;;;;1.10;1.00;;;;;15.40;101101.00;;;;2053471;28;20299;-43
2021/04/08 01:55:31;;;;;;;1.33;1.00;;;;;15.40;101104.00;;;;2066217;28;20235;-43
2021/04/08 01:56:33;;;;;;;1.77;1.33;;;;;15.30;101105.00;;;;2073215;28;20727;-45
2021/04/08 01:57:34;;;;;;;1.55;0.93;;;;;15.40;101104.00;;;;2069833;28;20573;-45
2021/04/08 01:58:34;;;;;;;1.20;0.83;;;;;15.30;101106.00;;;;2069913;28;20222;-43
2021/04/08 01:59:35;;;;;;;2.00;1.10;;;;;15.40;101104.00;;;;2069593;28;20708;-45
2021/04/08 02:00:35;;;;;;;1.03;0.80;;;;;15.40;101115.00;;;;2070858;28;20221;-43
2021/04/08 02:01:36;;;;;;;1.37;1.00;;;;;15.40;101104.00;;;;2069447;28;20465;-43
2021/04/08 02:02:37;;;;;;;1.40;1.20;;;;;15.40;101100.00;;;;2061561;28;20220;-43
2021/04/08 02:03:37;;;;;;;1.52;1.10;;;;;15.40;101115.00;;;;2060294;28;20215;-44
2021/04/08 02:04:38;;;;;;;1.10;0.90;;;;;15.40;101106.00;;;;2069944;28;20748;-43
2021/04/08 02:05:38;;;;;;;1.90;1.08;;;;;15.40;101113.00;;;;2069598;28;20208;-46
2021/04/08 02:06:39;;;;;;;1.37;0.80;;;;;15.40;101116.00;;;;2062026;28;20582;-44
2021/04/08 02:07:40;;;;;;;2.00;0.90;;;;;15.30;101116.00;;;;2064728;28;20297;-42
2021/04/08 02:08:41;;;;;;;3.10;0.93;;;;;15.40;101110.00;;;;2061825;28;20215;-44
2021/04/08 02:09:42;;;;;;;1.15;0.80;;;;;15.30;101111.00;;;;2074713;28;20942;-43
2021/04/08 02:10:42;;;;;;;1.63;0.90;;;;;15.30;101108.00;;;;2063365;28;20248;-43
2021/04/08 02:11:44;;;;;;;3.40;1.20;;;;;15.30;101107.00;;;;2063330;28;20219;-43
2021/04/08 02:12:48;;;;;;;1.40;0.88;;;;;15.40;101106.00;;;;2069625;28;20941;-43
2021/04/08 02:13:49;;;;;;;1.20;0.88;;;;;15.40;101113.00;;;;2049019;28;20894;-43
2021/04/08 02:14:49;;;;;;;1.40;0.88;;;;;15.40;101100.00;;;;2053921;28;20279;-42
2021/04/08 02:15:50;;;;;;;3.67;1.00;;;;;15.40;101117.00;;;;2069481;28;20219;-43
2021/04/08 02:16:50;;;;;;;1.13;0.70;;;;;15.40;101108.00;;;;2061722;28;20219;-44
2021/04/08 02:17:55;;;;;;;1.80;0.90;;;;;15.40;101109.00;;;;2069680;28;20295;-45
2021/04/08 02:18:56;;;;;;;1.23;1.10;;;;;15.40;101113.00;;;;2062869;28;20665;-43
2021/04/08 02:19:56;;;;;;;1.17;0.83;;;;;15.40;101110.00;;;;2069584;28;20222;-43
2021/04/08 02:20:57;;;;;;;1.17;0.93;;;;;15.40;101118.00;;;;2069803;28;20452;-42
2021/04/08 02:21:58;;;;;;;1.55;0.85;;;;;15.40;101117.00;;;;2069569;28;20260;-44
2021/04/08 02:23:03;;;;;;;1.53;0.80;;;;;15.40;101115.00;;;;2061686;28;20658;-44
2021/04/08 02:24:03;;;;;;;2.33;1.05;;;;;15.40;101114.00;;;;2060800;28;20731;-46
2021/04/08 02:25:08;;;;;;;1.80;1.10;;;;;15.40;101114.00;;;;2053529;28;20220;-44
2021/04/08 02:26:09;;;;;;;1.45;1.00;;;;;15.40;101126.00;;;;2062267;28;20231;-43
2021/04/08 02:27:09;;;;;;;1.27;0.90;;;;;15.40;101120.00;;;;2061621;28;20700;-46
2021/04/08 02:28:09;;;;;;;1.73;1.10;;;;;15.30;101113.00;;;;2065046;28;20222;-44
2021/04/08 02:29:10;;;;;;;1.47;0.90;;;;;15.40;101119.00;;;;2069424;28;20220;-43
2021/04/08 02:30:13;;;;;;;1.10;1.00;;;;;15.40;101115.00;;;;2060363;28;20239;-42
2021/04/08 02:31:13;;;;;;;1.38;1.00;;;;;15.40;101117.00;;;;2069192;28;20215;-45
2021/04/08 02:32:14;;;;;;;1.40;0.97;;;;;15.40;101114.00;;;;2070495;28;21649;-44
2021/04/08 02:33:23;;;;;;;1.13;1.00;;;;;15.40;101114.00;;;;2063469;28;20287;-42
2021/04/08 02:34:24;;;;;;;1.08;0.98;;;;;15.40;101130.00;;;;2075253;28;20249;-46
2021/04/08 02:35:24;;;;;;;1.33;1.23;;;;;15.40;101118.00;;;;2076869;28;20222;-43
2021/04/08 02:36:24;;;;;;;1.33;1.00;;;;;15.40;101120.00;;;;2077128;28;20218;-44
2021/04/08 02:37:26;;;;;;;1.43;0.97;;;;;15.40;101125.00;;;;2074729;28;20630;-44
2021/04/08 02:38:27;;;;;;;1.83;1.25;;;;;15.40;101108.00;;;;2069479;28;20322;-46
2021/04/08 02:39:28;;;;;;;1.48;1.08;;;;;15.40;101122.00;;;;2074302;28;20227;-46
2021/04/08 02:40:28;;;;;;;1.13;1.00;;;;;15.40;101112.00;;;;2062347;28;20678;-47
2021/04/08 02:41:28;;;;;;;1.43;0.90;;;;;15.40;101119.00;;;;2062001;28;20216;-43
2021/04/08 02:42:29;;;;;;;1.73;1.03;;;;;15.30;101115.00;;;;2069050;28;20719;-44
2021/04/08 02:43:29;;;;;;;1.40;1.20;;;;;15.30;101118.00;;;;2068460;28;20584;-43
2021/04/08 02:44:29;;;;;;;2.13;1.03;;;;;15.30;101114.00;;;;2070354;28;20215;-47
2021/04/08 02:45:30;;;;;;;1.77;1.00;;;;;15.30;101113.00;;;;2070237;28;20212;-45
2021/04/08 02:46:30;;;;;;;0.93;0.70;;;;;15.40;101111.00;;;;2070301;28;20216;-43
2021/04/08 02:47:30;;;;;;;1.50;1.00;;;;;15.40;101111.00;;;;2069523;28;20223;-45
2021/04/08 02:48:32;;;;;;;1.20;1.10;;;;;15.40;101115.00;;;;2070094;28;20219;-42
2021/04/08 02:49:32;;;;;;;1.50;0.95;;;;;15.30;101120.00;;;;2069600;28;20628;-43
2021/04/08 02:50:33;;;;;;;1.50;1.30;;;;;15.30;101114.00;;;;2069533;28;20219;-43
2021/04/08 02:51:41;;;;;;;1.47;0.87;;;;;15.30;101112.00;;;;2069153;28;20212;-42
2021/04/08 02:52:54;;;;;;;1.27;0.98;;;;;15.30;101118.00;;;;2067659;28;20345;-43
2021/04/08 02:54:01;;;;;;;1.10;0.85;;;;;15.30;101118.00;;;;2076246;28;20221;-44
2021/04/08 02:55:14;;;;;;;1.55;1.02;;;;;15.30;101127.00;;;;2075861;28;20206;-43
2021/04/08 02:56:34;;;;;;;1.20;1.10;;;;;15.40;101121.00;;;;2069682;28;20234;-47
2021/04/08 02:57:40;;;;;;;1.10;0.70;;;;;15.30;101130.00;;;;2071511;28;20249;-44
2021/04/08 02:58:40;;;;;;;1.48;1.00;;;;;15.30;101116.00;;;;2070247;28;20266;-45
2021/04/08 02:59:44;;;;;;;1.20;0.90;;;;;15.30;101125.00;;;;2061113;28;20297;-44
2021/04/08 03:00:57;;;;;;;1.17;0.85;;;;;15.40;101116.00;;;;2062228;28;20217;-42
2021/04/08 03:02:03;;;;;;;2.45;0.90;;;;;15.40;101128.00;;;;2069492;28;20275;-46
2021/04/08 03:03:05;;;;;;;1.05;0.95;;;;;15.40;101128.00;;;;2063460;28;20295;-44
2021/04/08 03:04:05;;;;;;;1.00;0.73;;;;;15.40;101120.00;;;;2061893;28;20266;-42
2021/04/08 03:05:07;;;;;;;1.60;1.00;;;;;15.30;101126.00;;;;2059886;28;20222;-44
2021/04/08 03:06:08;;;;;;;1.60;1.10;;;;;15.30;101122.00;;;;2061573;28;20215;-44
2021/04/08 03:07:09;;;;;;;1.07;1.00;;;;;15.30;101127.00;;;;2066332;28;20759;-47
2021/04/08 03:08:10;;;;;;;2.23;1.10;;;;;15.30;101123.00;;;;2069000;28;20229;-45
2021/04/08 03:09:11;;;;;;;1.73;0.90;;;;;15.30;101117.00;;;;2073290;28;20454;-43
2021/04/08 03:10:12;;;;;;;1.10;1.00;;;;;15.30;101122.00;;;;2073523;28;20218;-45
2021/04/08 03:11:14;;;;;;;1.35;1.00;;;;;15.30;101107.00;;;;2062369;28;20247;-43
2021/04/08 03:12:15;;;;;;;1.02;0.88;;;;;15.30;101113.00;;;;2057453;28;20704;-44
2021/04/08 03:13:16;;;;;;;1.00;0.77;;;;;15.30;101126.00;;;;2057014;28;20274;-42
2021/04/08 03:14:16;;;;;;;2.13;1.00;;;;;15.30;101116.00;;;;2075128;28;20681;-44
2021/04/08 03:15:28;;;;;;;1.47;1.00;;;;;15.30;101117.00;;;;2069186;28;20226;-45
2021/04/08 03:16:32;;;;;;;1.88;0.80;;;;;15.30;101109.00;;;;2071280;28;20227;-42
2021/04/08 03:17:35;;;;;;;1.20;0.82;;;;;15.30;101104.00;;;;2069540;28;20334;-42
2021/04/08 03:18:36;;;;;;;2.15;1.20;;;;;15.30;101116.00;;;;2069809;28;20242;-46
2021/04/08 03:19:36;;;;;;;1.10;0.90;;;;;15.30;101117.00;;;;2068948;28;20269;-41
2021/04/08 03:20:37;;;;;;;2.10;1.10;;;;;15.30;101128.00;;;;2068864;28;20796;-44
2021/04/08 03:21:37;;;;;;;1.37;1.20;;;;;15.30;101124.00;;;;2069143;28;20225;-43
2021/04/08 03:22:38;;;;;;;1.50;1.10;;;;;15.30;101123.00;;;;2068655;28;20215;-45
2021/04/08 03:23:38;;;;;;;2.97;1.10;;;;;15.30;101131.00;;;;2067602;28;20238;-44
2021/04/08 03:24:39;;;;;;;1.10;0.83;;;;;15.30;101131.00;;;;2068370;28;20658;-47
2021/04/08 03:25:39;;;;;;;1.87;1.03;;;;;15.30;101130.00;;;;2076938;28;20294;-43
2021/04/08 03:26:39;;;;;;;3.43;1.30;;;;;15.30;101134.00;;;;2069061;28;20727;-44
2021/04/08 03:27:40;;;;;;;1.93;0.90;;;;;15.30;101128.00;;;;2061035;28;20223;-43
2021/04/08 03:28:40;;;;;;;1.20;0.70;;;;;15.30;101123.00;;;;2077205;28;20257;-44
2021/04/08 03:29:41;;;;;;;0.70;0.70;;;;;15.30;101138.00;;;;2069177;28;20771;-46
2021/04/08 03:30:41;;;;;;;1.77;1.20;;;;;15.30;101139.00;;;;2060945;28;20327;-45
2021/04/08 03:31:44;;;;;;;1.27;0.90;;;;;15.30;101138.00;;;;2054289;28;20302;-48
2021/04/08 03:32:45;;;;;;;2.38;1.25;;;;;15.30;101134.00;;;;2069799;28;20755;-47
2021/04/08 03:33:45;;;;;;;1.50;1.20;;;;;15.30;101135.00;;;;2067915;28;20211;-45
2021/04/08 03:34:46;;;;;;;2.10;1.00;;;;;15.30;101135.00;;;;2069476;28;20783;-44
2021/04/08 03:35:47;;;;;;;2.13;1.13;;;;;15.30;101126.00;;;;2060958;28;20738;-43
2021/04/08 03:36:47;;;;;;;1.83;1.10;;;;;15.30;101139.00;;;;2053393;28;20216;-47
2021/04/08 03:37:47;;;;;;;2.23;1.20;;;;;15.30;101140.00;;;;2063763;28;20454;-44
2021/04/08 03:38:48;;;;;;;1.43;1.33;;;;;15.30;101148.00;;;;2069253;28;20209;-45
2021/04/08 03:39:48;;;;;;;1.43;1.03;;;;;15.30;101135.00;;;;2066064;28;20395;-43
2021/04/08 03:40:48;;;;;;;1.87;1.10;;;;;15.30;101138.00;;;;2066608;28;20649;-43
2021/04/08 03:41:49;;;;;;;1.80;1.27;;;;;15.30;101142.00;;;;2060908;28;20211;-44
2021/04/08 03:42:49;;;;;;;1.37;0.90;;;;;15.30;101143.00;;;;2069086;28;20241;-47
2021/04/08 03:43:50;;;;;;;1.03;0.87;;;;;15.30;101143.00;;;;2077194;28;20210;-43
2021/04/08 03:44:51;;;;;;;1.43;1.03;;;;;15.30;101142.00;;;;2069371;28;20790;-43
2021/04/08 03:45:51;;;;;;;1.23;0.80;;;;;15.20;101139.00;;;;2068629;28;20655;-48
2021/04/08 03:46:54;;;;;;;1.47;1.03;;;;;15.30;101152.00;;;;2061125;28;20228;-45
2021/04/08 03:47:56;;;;;;;2.08;1.17;;;;;15.30;101148.00;;;;2061027;28;20278;-44
2021/04/08 03:48:56;;;;;;;1.45;0.98;;;;;15.30;101131.00;;;;2053743;28;20697;-45
2021/04/08 03:49:57;;;;;;;2.03;1.10;;;;;15.20;101151.00;;;;2060133;28;20289;-45
2021/04/08 03:50:57;;;;;;;1.33;1.17;;;;;15.30;101140.00;;;;2068737;28;20216;-44
2021/04/08 03:51:57;;;;;;;1.63;1.03;;;;;15.30;101145.00;;;;2077141;28;20590;-48
2021/04/08 03:52:58;;;;;;;1.37;1.00;;;;;15.30;101147.00;;;;2069086;28;20218;-44
2021/04/08 03:53:58;;;;;;;1.87;1.27;;;;;15.30;101143.00;;;;2075940;28;20234;-44
2021/04/08 03:54:58;;;;;;;1.40;1.00;;;;;15.30;101142.00;;;;2069074;28;20683;-43
2021/04/08 03:55:59;;;;;;;2.10;1.53;;;;;15.30;101150.00;;;;2060803;28;20221;-45
2021/04/08 03:56:59;;;;;;;1.50;1.00;;;;;15.30;101153.00;;;;2068331;28;20688;-43
2021/04/08 03:57:59;;;;;;;1.50;1.10;;;;;15.30;101153.00;;;;2060757;28;20219;-48
2021/04/08 03:59:00;;;;;;;1.20;1.00;;;;;15.30;101155.00;;;;2069074;28;20218;-45
2021/04/08 04:00:00;;;;;;;1.47;0.90;;;;;15.30;101151.00;;;;2077240;28;20210;-43
2021/04/08 04:01:01;;;;;;;1.37;0.90;;;;;15.30;101144.00;;;;2061076;28;20755;-43
2021/04/08 04:02:01;;;;;;;1.10;0.93;;;;;15.30;101152.00;;;;2060684;28;20401;-43
2021/04/08 04:03:01;;;;;;;1.23;0.83;;;;;15.30;101150.00;;;;2068687;28;20304;-44
2021/04/08 04:04:03;;;;;;;1.97;1.00;;;;;15.30;101154.00;;;;2067571;28;20297;-47
2021/04/08 04:05:04;;;;;;;2.17;1.25;;;;;15.30;101149.00;;;;2068730;28;20219;-45
2021/04/08 04:06:07;;;;;;;1.45;1.00;;;;;15.30;101150.00;;;;2068924;28;20223;-44
2021/04/08 04:07:08;;;;;;;2.03;1.00;;;;;15.20;101160.00;;;;2067773;28;20648;-47
2021/04/08 04:08:13;;;;;;;1.10;0.90;;;;;15.30;101154.00;;;;2069448;28;20277;-47
2021/04/08 04:09:13;;;;;;;1.75;0.90;;;;;15.30;101159.00;;;;2068029;28;20550;-44
2021/04/08 04:10:14;;;;;;;1.80;1.20;;;;;15.20;101152.00;;;;2068906;28;20770;-47
2021/04/08 04:11:14;;;;;;;1.93;1.00;;;;;15.20;101146.00;;;;2071863;28;20583;-46
2021/04/08 04:12:15;;;;;;;1.10;1.00;;;;;15.20;101157.00;;;;2074184;28;20206;-43
2021/04/08 04:13:15;;;;;;;3.00;1.03;;;;;15.20;101154.00;;;;2083425;28;20218;-46
2021/04/08 04:14:20;;;;;;;1.33;0.90;;;;;15.20;101156.00;;;;2076295;28;20241;-44
2021/04/08 04:15:20;;;;;;;1.50;1.05;;;;;15.30;101157.00;;;;2076462;28;20706;-45
2021/04/08 04:16:21;;;;;;;0.90;0.70;;;;;15.30;101156.00;;;;2076348;28;20217;-43
2021/04/08 04:17:27;;;;;;;1.57;1.00;;;;;15.30;101156.00;;;;2076527;28;20258;-43
2021/04/08 04:18:28;;;;;;;3.08;1.40;;;;;15.30;101156.00;;;;2077364;28;20226;-44
2021/04/08 04:19:28;;;;;;;2.40;1.13;;;;;15.30;101163.00;;;;2077614;28;20213;-47
2021/04/08 04:20:28;;;;;;;2.10;1.30;;;;;15.30;101154.00;;;;2077092;28;20225;-44
2021/04/08 04:21:30;;;;;;;1.53;1.00;;;;;15.30;101161.00;;;;2077743;28;20221;-44
2021/04/08 04:22:31;;;;;;;1.70;1.20;;;;;15.30;101158.00;;;;2077043;28;20223;-46
2021/04/08 04:23:32;;;;;;;2.30;1.05;;;;;15.20;101159.00;;;;2076552;28;20300;-43
2021/04/08 04:24:32;;;;;;;1.57;1.13;;;;;15.30;101155.00;;;;2077339;28;20587;-43
2021/04/08 04:25:32;;;;;;;1.53;1.17;;;;;15.20;101152.00;;;;2077888;28;20218;-48
2021/04/08 04:26:33;;;;;;;1.37;1.03;;;;;15.30;101155.00;;;;2077672;28;20214;-44
2021/04/08 04:27:33;;;;;;;3.03;1.10;;;;;15.30;101148.00;;;;2078212;28;20273;-44
2021/04/08 04:28:33;;;;;;;1.20;0.90;;;;;15.30;101165.00;;;;2077600;28;20218;-45
2021/04/08 04:29:34;;;;;;;1.10;0.80;;;;;15.30;101158.00;;;;2077998;28;20275;-44
2021/04/08 04:30:34;;;;;;;1.63;0.87;;;;;15.30;101164.00;;;;2077735;28;20214;-43
2021/04/08 04:31:35;;;;;;;1.20;0.90;;;;;15.20;101163.00;;;;2078005;28;20703;-46
2021/04/08 04:32:35;;;;;;;1.47;1.30;;;;;15.20;101162.00;;;;2077896;28;20225;-46
2021/04/08 04:33:36;;;;;;;1.53;0.90;;;;;15.30;101170.00;;;;2076202;28;20779;-44
2021/04/08 04:34:39;;;;;;;2.35;0.85;;;;;15.20;101164.00;;;;2076312;28;20210;-47
2021/04/08 04:35:40;;;;;;;3.17;1.20;;;;;15.20;101164.00;;;;2077614;28;20318;-47
2021/04/08 04:36:40;;;;;;;1.33;0.97;;;;;15.20;101164.00;;;;2077132;28;20715;-44
2021/04/08 04:37:41;;;;;;;1.50;1.20;;;;;15.20;101160.00;;;;2077522;28;20233;-45
2021/04/08 04:38:42;;;;;;;2.05;1.05;;;;;15.30;101165.00;;;;2077369;28;20233;-43
2021/04/08 04:39:44;;;;;;;1.87;1.23;;;;;15.30;101164.00;;;;2075747;28;20218;-42
2021/04/08 04:40:44;;;;;;;1.20;0.88;;;;;15.30;101163.00;;;;2073787;28;20218;-43
2021/04/08 04:41:45;;;;;;;1.57;1.00;;;;;15.30;101164.00;;;;2072438;28;20214;-47
2021/04/08 04:42:45;;;;;;;1.60;1.03;;;;;15.30;101158.00;;;;2070843;28;20258;-45
2021/04/08 04:43:46;;;;;;;1.53;1.10;;;;;15.30;101158.00;;;;2069961;28;20213;-44
2021/04/08 04:44:46;;;;;;;1.10;0.83;;;;;15.20;101163.00;;;;2070635;28;20206;-42
2021/04/08 04:45:46;;;;;;;1.53;1.00;;;;;15.20;101165.00;;;;2071217;28;20203;-43
2021/04/08 04:46:47;;;;;;;2.03;0.97;;;;;15.20;101168.00;;;;2070564;28;20215;-43
2021/04/08 04:47:47;;;;;;;1.63;1.10;;;;;15.30;101170.00;;;;2070599;28;20290;-46
2021/04/08 04:48:48;;;;;;;1.10;0.90;;;;;15.20;101161.00;;;;2069870;28;20211;-44
2021/04/08 04:49:51;;;;;;;1.43;0.70;;;;;15.20;101167.00;;;;2070298;28;20229;-46
2021/04/08 04:50:52;;;;;;;1.20;1.10;;;;;15.20;101160.00;;;;2074416;28;20250;-44
2021/04/08 04:51:52;;;;;;;1.37;1.03;;;;;15.20;101160.00;;;;2078890;28;20214;-43
2021/04/08 04:52:52;;;;;;;0.83;0.80;;;;;15.30;101166.00;;;;2078631;28;20213;-48
2021/04/08 04:53:53;;;;;;;1.40;1.00;;;;;15.30;101166.00;;;;2077389;28;20290;-45
2021/04/08 04:54:55;;;;;;;2.40;1.40;;;;;15.30;101173.00;;;;2077756;28;20202;-46
2021/04/08 04:55:55;;;;;;;1.38;1.08;;;;;15.30;101166.00;;;;2078286;28;20218;-46
2021/04/08 04:56:56;;;;;;;1.50;0.93;;;;;15.30;101173.00;;;;2079068;28;20222;-44
2021/04/08 04:57:56;;;;;;;1.20;0.93;;;;;15.30;101167.00;;;;2079169;28;20575;-44
2021/04/08 04:58:56;;;;;;;0.97;0.87;;;;;15.30;101170.00;;;;2079159;28;20233;-44
2021/04/08 04:59:57;;;;;;;1.37;1.00;;;;;15.30;101175.00;;;;2079548;28;20210;-44
2021/04/08 05:00:57;;;;;;;1.73;1.20;;;;;15.30;101174.00;;;;2079029;28;20211;-45
2021/04/08 05:01:57;;;;;;;1.00;0.90;;;;;15.20;101179.00;;;;2079328;28;20310;-47
2021/04/08 05:02:58;;;;;;;1.13;1.00;;;;;15.20;101182.00;;;;2077957;28;20638;-44
2021/04/08 05:03:59;;;;;;;1.57;1.10;;;;;15.20;101177.00;;;;2077314;28;20637;-47
2021/04/08 05:04:59;;;;;;;1.23;0.77;;;;;15.20;101181.00;;;;2078637;28;20998;-44
2021/04/08 05:05:59;;;;;;;2.03;1.03;;;;;15.20;101176.00;;;;2079211;28;20698;-44